Time,TemperatureF,DewpointF,PressureIn,WindDirection,WindDirectionDegrees,WindSpeedMPH,WindSpeedGustMPH,Humidity,HourlyPrecipIn,Conditions,Clouds,dailyrainin,SoftwareType,DateUTC
2013-08-19 00:01:00,78.1,76.5,30.09,NE,45,1.0,-999.0,95,-99.99,,,-99.99,meteohub,2013-08-19 04:01:00,
2013-08-19 00:02:00,77.0,77.0,30.09,NE,45,3.0,-999.0,100,-99.99,,,-99.99,meteohub,2013-08-19 04:02:00,
2013-08-19 00:03:00,78.1,76.8,30.09,NE,45,2.0,-999.0,96,-99.99,,,-99.99,meteohub,2013-08-19 04:03:00,
2013-08-19 00:08:00,78.1,76.5,30.09,NE,45,1.0,-999.0,95,-99.99,,,-99.99,meteohub,2013-08-19 04:08:00,
2013-08-19 00:13:00,78.1,76.8,30.09,NE,45,2.0,-999.0,96,-99.99,,,-99.99,meteohub,2013-08-19 04:13:00,
2013-08-19 00:18:00,78.1,76.8,30.09,NE,45,0.0,-999.0,96,-99.99,,,-99.99,meteohub,2013-08-19 04:18:00,
2013-08-19 00:23:00,78.1,76.8,30.09,NE,45,0.0,-999.0,96,-99.99,,,-99.99,meteohub,2013-08-19 04:23:00,
2013-08-19 00:28:00,78.1,76.8,30.09,NNE,22,0.0,-999.0,96,-99.99,,,-99.99,meteohub,2013-08-19 04:28:00,
2013-08-19 00:33:00,78.1,76.8,30.09,NNE,22,0.0,-999.0,96,-99.99,,,-99.99,meteohub,2013-08-19 04:33:00,
2013-08-19 00:38:00,78.1,77.2,30.09,NNW,337,0.0,-999.0,97,-99.99,,,-99.99,meteohub,2013-08-19 04:38:00,
2013-08-19 00:44:00,77.0,77.0,30.09,SE,135,1.0,-999.0,100,-99.99,,,-99.99,meteohub,2013-08-19 04:44:00,
2013-08-19 00:49:00,78.1,77.2,30.09,NNW,337,0.0,-999.0,97,-99.99,,,-99.99,meteohub,2013-08-19 04:49:00,
2013-08-19 00:54:00,77.0,76.1,30.08,NE,45,0.0,-999.0,97,-99.99,,,-99.99,meteohub,2013-08-19 04:54:00,
2013-08-19 00:59:00,77.0,76.1,30.08,NE,45,4.0,-999.0,97,-99.99,,,-99.99,meteohub,2013-08-19 04:59:00,
2013-08-19 01:04:00,78.1,77.2,30.08,NNW,337,1.0,-999.0,97,-99.99,,,-99.99,meteohub,2013-08-19 05:04:00,
2013-08-19 01:09:00,77.0,75.7,30.08,NE,45,1.0,-999.0,96,-99.99,,,-99.99,meteohub,2013-08-19 05:09:00,
2013-08-19 01:14:00,77.0,75.7,30.08,NE,45,0.0,-999.0,96,-99.99,,,-99.99,meteohub,2013-08-19 05:14:00,
2013-08-19 01:19:00,77.0,76.1,30.08,NE,45,6.0,-999.0,97,-99.99,,,-99.99,meteohub,2013-08-19 05:19:00,
2013-08-19 01:24:00,77.0,75.7,30.08,SE,135,4.0,-999.0,96,-99.99,,,-99.99,meteohub,2013-08-19 05:24:00,
2013-08-19 01:29:00,77.0,76.1,30.08,NE,45,6.0,-999.0,97,-99.99,,,-99.99,meteohub,2013-08-19 05:29:00,
2013-08-19 01:34:00,78.1,77.2,30.08,NE,45,6.0,-999.0,97,-99.99,,,-99.99,meteohub,2013-08-19 05:34:00,
2013-08-19 01:39:00,77.0,77.0,30.08,NE,45,4.0,-999.0,100,-99.99,,,-99.99,meteohub,2013-08-19 05:39:00,
2013-08-19 01:45:00,78.1,77.2,30.08,NE,45,4.0,-999.0,97,-99.99,,,-99.99,meteohub,2013-08-19 05:45:00,
2013-08-19 01:50:00,78.1,77.2,30.08,NE,45,6.0,-999.0,97,-99.99,,,-99.99,meteohub,2013-08-19 05:50:00,
2013-08-19 01:55:00,78.1,77.2,30.08,NE,45,6.0,-999.0,97,-99.99,,,-99.99,meteohub,2013-08-19 05:55:00,
2013-08-19 02:00:00,78.1,76.8,30.08,NE,45,1.0,-999.0,96,-99.99,,,-99.99,meteohub,2013-08-19 06:00:00,
2013-08-19 02:05:00,78.1,76.8,30.06,NE,45,5.0,-999.0,96,-99.99,,,-99.99,meteohub,2013-08-19 06:05:00,
2013-08-19 02:10:00,77.0,75.4,30.06,NE,45,6.0,-999.0,95,-99.99,,,-99.99,meteohub,2013-08-19 06:10:00,
2013-08-19 02:15:00,77.0,75.4,30.06,NE,45,3.0,-999.0,95,-99.99,,,-99.99,meteohub,2013-08-19 06:15:00,
2013-08-19 02:20:00,78.1,76.5,30.06,NE,45,3.0,-999.0,95,-99.99,,,-99.99,meteohub,2013-08-19 06:20:00,
2013-08-19 02:25:00,78.1,76.5,30.06,NE,45,3.0,-999.0,95,-99.99,,,-99.99,meteohub,2013-08-19 06:25:00,
2013-08-19 02:30:00,77.0,75.2,30.06,NE,45,5.0,-999.0,94,-99.99,,,-99.99,meteohub,2013-08-19 06:30:00,
2013-08-19 02:35:00,77.0,76.5,30.04,NE,45,4.0,-999.0,98,-99.99,,,-99.99,meteohub,2013-08-19 06:35:00,
2013-08-19 02:40:00,78.1,76.3,30.04,NE,45,2.0,-999.0,94,-99.99,,,-99.99,meteohub,2013-08-19 06:40:00,
2013-08-19 02:46:00,77.0,75.2,30.04,NE,45,4.0,-999.0,94,-99.99,,,-99.99,meteohub,2013-08-19 06:46:00,
2013-08-19 02:51:00,77.0,75.2,30.04,NE,45,4.0,-999.0,94,-99.99,,,-99.99,meteohub,2013-08-19 06:51:00,
2013-08-19 02:56:00,77.0,74.8,30.04,NE,45,6.0,-999.0,93,-99.99,,,-99.99,meteohub,2013-08-19 06:56:00,
2013-08-19 03:01:00,77.0,74.8,30.04,NE,45,6.0,-999.0,93,-99.99,,,-99.99,meteohub,2013-08-19 07:01:00,
2013-08-19 03:06:00,77.0,74.8,30.04,NE,45,2.0,-999.0,93,-99.99,,,-99.99,meteohub,2013-08-19 07:06:00,
2013-08-19 03:11:00,77.0,76.5,30.04,NE,45,5.0,-999.0,98,-99.99,,,-99.99,meteohub,2013-08-19 07:11:00,
2013-08-19 03:16:00,77.0,74.8,30.04,NE,45,7.0,-999.0,93,-99.99,,,-99.99,meteohub,2013-08-19 07:16:00,
2013-08-19 03:21:00,77.0,75.2,30.04,NE,45,1.0,-999.0,94,-99.99,,,-99.99,meteohub,2013-08-19 07:21:00,
2013-08-19 03:26:00,77.0,75.2,30.04,NE,45,4.0,-999.0,94,-99.99,,,-99.99,meteohub,2013-08-19 07:26:00,
2013-08-19 03:31:00,77.0,76.6,30.03,NE,45,8.0,-999.0,99,-99.99,,,-99.99,meteohub,2013-08-19 07:31:00,
2013-08-19 03:36:00,77.0,75.2,30.03,NE,45,3.0,-999.0,94,-99.99,,,-99.99,meteohub,2013-08-19 07:36:00,
2013-08-19 03:41:00,77.0,75.4,30.03,NE,45,4.0,-999.0,95,-99.99,,,-99.99,meteohub,2013-08-19 07:41:00,
2013-08-19 03:46:00,77.0,75.4,30.03,NE,45,3.0,-999.0,95,-99.99,,,-99.99,meteohub,2013-08-19 07:46:00,
2013-08-19 03:52:00,77.0,75.4,30.03,NE,45,3.0,-999.0,95,-99.99,,,-99.99,meteohub,2013-08-19 07:52:00,
2013-08-19 03:57:00,77.0,75.4,30.03,NE,45,4.0,-999.0,95,-99.99,,,-99.99,meteohub,2013-08-19 07:57:00,
2013-08-19 04:02:00,77.0,75.4,30.03,NE,45,4.0,-999.0,95,-99.99,,,-99.99,meteohub,2013-08-19 08:02:00,
2013-08-19 04:07:00,77.0,77.0,30.01,NE,45,5.0,-999.0,100,-99.99,,,-99.99,meteohub,2013-08-19 08:07:00,
2013-08-19 04:12:00,77.0,75.7,30.01,NE,45,5.0,-999.0,96,-99.99,,,-99.99,meteohub,2013-08-19 08:12:00,
2013-08-19 04:17:00,77.0,75.7,30.01,NE,45,5.0,-999.0,96,-99.99,,,-99.99,meteohub,2013-08-19 08:17:00,
2013-08-19 04:22:00,77.0,75.7,30.01,NE,45,6.0,-999.0,96,-99.99,,,-99.99,meteohub,2013-08-19 08:22:00,
2013-08-19 04:27:00,77.0,75.7,30.01,NE,45,9.0,-999.0,96,-99.99,,,-99.99,meteohub,2013-08-19 08:27:00,
2013-08-19 04:32:00,77.0,75.7,30.01,NE,45,7.0,-999.0,96,-99.99,,,-99.99,meteohub,2013-08-19 08:32:00,
2013-08-19 04:37:00,77.0,76.1,30.01,NE,45,6.0,-999.0,97,-99.99,,,-99.99,meteohub,2013-08-19 08:37:00,
2013-08-19 04:42:00,77.0,77.0,30.01,NE,45,7.0,-999.0,100,-99.99,,,-99.99,meteohub,2013-08-19 08:42:00,
2013-08-19 04:47:00,77.0,75.7,30.01,NE,45,6.0,-999.0,96,-99.99,,,-99.99,meteohub,2013-08-19 08:47:00,
2013-08-19 04:52:00,77.0,75.7,30.01,NE,45,6.0,-999.0,96,-99.99,,,-99.99,meteohub,2013-08-19 08:52:00,
2013-08-19 04:57:00,77.0,76.1,30.01,NE,45,9.0,-999.0,97,-99.99,,,-99.99,meteohub,2013-08-19 08:57:00,
2013-08-19 05:02:00,77.0,75.7,30.01,NE,45,6.0,-999.0,96,-99.99,,,-99.99,meteohub,2013-08-19 09:02:00,
2013-08-19 05:07:00,77.0,76.1,30.01,NE,45,8.0,-999.0,97,-99.99,,,-99.99,meteohub,2013-08-19 09:07:00,
2013-08-19 05:12:00,77.0,76.1,30.00,NE,45,12.0,-999.0,97,-99.99,,,-99.99,meteohub,2013-08-19 09:12:00,
2013-08-19 05:17:00,77.0,77.0,30.00,SE,135,4.0,-999.0,100,-99.99,,,-99.99,meteohub,2013-08-19 09:17:00,
2013-08-19 05:22:00,77.0,75.7,30.00,NE,45,9.0,-999.0,96,-99.99,,,-99.99,meteohub,2013-08-19 09:22:00,
2013-08-19 05:27:00,77.0,75.7,30.00,NE,45,7.0,-999.0,96,-99.99,,,-99.99,meteohub,2013-08-19 09:27:00,
2013-08-19 05:32:00,77.0,75.4,30.00,SE,135,10.0,-999.0,95,-99.99,,,-99.99,meteohub,2013-08-19 09:32:00,
2013-08-19 05:37:00,77.0,75.4,30.00,SE,135,7.0,-999.0,95,-99.99,,,-99.99,meteohub,2013-08-19 09:37:00,
2013-08-19 05:42:00,77.0,74.8,30.00,NE,45,12.0,-999.0,93,-99.99,,,-99.99,meteohub,2013-08-19 09:42:00,
2013-08-19 05:47:00,77.0,74.8,30.00,NE,45,9.0,-999.0,93,-99.99,,,-99.99,meteohub,2013-08-19 09:47:00,
2013-08-19 05:52:00,77.0,76.5,30.01,NE,45,8.0,-999.0,98,-99.99,,,-99.99,meteohub,2013-08-19 09:52:00,
2013-08-19 05:57:00,78.1,75.9,30.01,SE,135,12.0,-999.0,93,-99.99,,,-99.99,meteohub,2013-08-19 09:57:00,
2013-08-19 06:02:00,78.1,75.9,30.01,SE,135,5.0,-999.0,93,-99.99,,,-99.99,meteohub,2013-08-19 10:02:00,
2013-08-19 06:07:00,77.0,74.8,30.00,NE,45,13.0,-999.0,93,-99.99,,,-99.99,meteohub,2013-08-19 10:07:00,
2013-08-19 06:12:00,78.1,75.9,30.00,NE,45,8.0,-999.0,93,-99.99,,,-99.99,meteohub,2013-08-19 10:12:00,
2013-08-19 06:17:00,77.0,74.8,30.00,SE,135,7.0,-999.0,93,-99.99,,,-99.99,meteohub,2013-08-19 10:17:00,
2013-08-19 06:22:00,77.0,75.2,30.00,NE,45,7.0,-999.0,94,-99.99,,,-99.99,meteohub,2013-08-19 10:22:00,
2013-08-19 06:27:00,77.0,76.5,30.00,NE,45,10.0,-999.0,98,-99.99,,,-99.99,meteohub,2013-08-19 10:27:00,
2013-08-19 06:32:00,77.0,75.2,30.00,NE,45,12.0,-999.0,94,-99.99,,,-99.99,meteohub,2013-08-19 10:32:00,
2013-08-19 06:37:00,77.0,75.2,30.00,NE,45,10.0,-999.0,94,-99.99,,,-99.99,meteohub,2013-08-19 10:37:00,
2013-08-19 06:42:00,77.0,75.4,30.00,SE,135,6.0,-999.0,95,-99.99,,,-99.99,meteohub,2013-08-19 10:42:00,
2013-08-19 06:47:00,78.1,76.3,30.00,NE,45,9.0,-999.0,94,-99.99,,,-99.99,meteohub,2013-08-19 10:47:00,
2013-08-19 06:52:00,78.1,76.3,30.01,SE,135,8.0,-999.0,94,-99.99,,,-99.99,meteohub,2013-08-19 10:52:00,
2013-08-19 06:57:00,78.1,76.3,30.01,NE,45,8.0,-999.0,94,-99.99,,,-99.99,meteohub,2013-08-19 10:57:00,
2013-08-19 07:02:00,77.0,76.5,30.01,NE,45,7.0,-999.0,98,-99.99,,,-99.99,meteohub,2013-08-19 11:02:00,
2013-08-19 07:07:00,78.1,76.3,30.01,NE,45,6.0,-999.0,94,-99.99,,,-99.99,meteohub,2013-08-19 11:07:00,
2013-08-19 07:12:00,78.1,75.9,30.01,NE,45,11.0,-999.0,93,-99.99,,,-99.99,meteohub,2013-08-19 11:12:00,
2013-08-19 07:17:00,77.0,75.2,30.01,NE,45,9.0,-999.0,94,-99.99,,,-99.99,meteohub,2013-08-19 11:17:00,
2013-08-19 07:22:00,78.1,75.9,30.01,NE,45,8.0,-999.0,93,-99.99,,,-99.99,meteohub,2013-08-19 11:22:00,
2013-08-19 07:27:00,78.1,76.3,30.01,NE,45,8.0,-999.0,94,-99.99,,,-99.99,meteohub,2013-08-19 11:27:00,
2013-08-19 07:32:00,78.1,76.3,30.01,SE,135,10.0,-999.0,94,-99.99,,,-99.99,meteohub,2013-08-19 11:32:00,
2013-08-19 07:37:00,78.1,77.7,30.03,NE,45,10.0,-999.0,99,-99.99,,,-99.99,meteohub,2013-08-19 11:37:00,
2013-08-19 07:42:00,78.1,75.9,30.03,NE,45,10.0,-999.0,93,-99.99,,,-99.99,meteohub,2013-08-19 11:42:00,
2013-08-19 07:47:00,78.1,75.6,30.03,NE,45,6.0,-999.0,92,-99.99,,,-99.99,meteohub,2013-08-19 11:47:00,
2013-08-19 07:52:00,79.0,76.5,30.03,SE,135,4.0,-999.0,92,-99.99,,,-99.99,meteohub,2013-08-19 11:52:00,
2013-08-19 07:57:00,79.0,76.5,30.03,NE,45,6.0,-999.0,92,-99.99,,,-99.99,meteohub,2013-08-19 11:57:00,
2013-08-19 08:02:00,79.0,76.1,30.04,SE,135,8.0,-999.0,91,-99.99,,,-99.99,meteohub,2013-08-19 12:02:00,
2013-08-19 08:07:00,79.0,76.1,30.04,NE,45,3.0,-999.0,91,-99.99,,,-99.99,meteohub,2013-08-19 12:07:00,
2013-08-19 08:12:00,79.0,77.4,30.04,NE,45,4.0,-999.0,95,-99.99,,,-99.99,meteohub,2013-08-19 12:12:00,
2013-08-19 08:17:00,80.1,76.5,30.04,SE,135,9.0,-999.0,89,-99.99,,,-99.99,meteohub,2013-08-19 12:17:00,
2013-08-19 08:22:00,80.1,76.5,30.04,NE,45,7.0,-999.0,89,-99.99,,,-99.99,meteohub,2013-08-19 12:22:00,
2013-08-19 08:27:00,80.1,76.5,30.04,NE,45,7.0,-999.0,89,-99.99,,,-99.99,meteohub,2013-08-19 12:27:00,
2013-08-19 08:32:00,80.1,76.5,30.04,NE,45,7.0,-999.0,89,-99.99,,,-99.99,meteohub,2013-08-19 12:32:00,
2013-08-19 08:37:00,80.1,75.9,30.04,NE,45,9.0,-999.0,87,-99.99,,,-99.99,meteohub,2013-08-19 12:37:00,
2013-08-19 08:42:00,81.0,77.0,30.04,SE,135,6.0,-999.0,88,-99.99,,,-99.99,meteohub,2013-08-19 12:42:00,
2013-08-19 08:47:00,81.0,77.0,30.04,SE,135,10.0,-999.0,88,-99.99,,,-99.99,meteohub,2013-08-19 12:47:00,
2013-08-19 08:52:00,81.0,76.1,30.04,NE,45,11.0,-999.0,85,-99.99,,,-99.99,meteohub,2013-08-19 12:52:00,
2013-08-19 08:57:00,81.0,76.1,30.04,SE,135,9.0,-999.0,85,-99.99,,,-99.99,meteohub,2013-08-19 12:57:00,
2013-08-19 09:03:00,82.0,76.3,30.04,SE,135,10.0,-999.0,83,-99.99,,,-99.99,meteohub,2013-08-19 13:03:00,
2013-08-19 09:08:00,82.0,78.1,30.04,NE,45,10.0,-999.0,88,-99.99,,,-99.99,meteohub,2013-08-19 13:08:00,
2013-08-19 09:13:00,82.0,76.3,30.04,SE,135,10.0,-999.0,83,-99.99,,,-99.99,meteohub,2013-08-19 13:13:00,
2013-08-19 09:18:00,82.9,76.5,30.04,NE,45,11.0,-999.0,81,-99.99,,,-99.99,meteohub,2013-08-19 13:18:00,
2013-08-19 09:23:00,82.9,76.1,30.04,SE,135,10.0,-999.0,80,-99.99,,,-99.99,meteohub,2013-08-19 13:23:00,
2013-08-19 09:28:00,82.9,77.5,30.04,SE,135,9.0,-999.0,84,-99.99,,,-99.99,meteohub,2013-08-19 13:28:00,
2013-08-19 09:33:00,82.9,75.4,30.04,SE,135,11.0,-999.0,78,-99.99,,,-99.99,meteohub,2013-08-19 13:33:00,
2013-08-19 09:39:00,82.9,74.7,30.04,SE,135,8.0,-999.0,76,-99.99,,,-99.99,meteohub,2013-08-19 13:39:00,
2013-08-19 09:44:00,82.9,73.8,30.04,SE,135,12.0,-999.0,74,-99.99,,,-99.99,meteohub,2013-08-19 13:44:00,
2013-08-19 09:49:00,84.0,75.2,30.04,SE,135,9.0,-999.0,75,-99.99,,,-99.99,meteohub,2013-08-19 13:49:00,
2013-08-19 09:54:00,84.0,75.2,30.04,SE,135,10.0,-999.0,75,-99.99,,,-99.99,meteohub,2013-08-19 13:54:00,
2013-08-19 09:59:00,84.0,74.5,30.04,SE,135,12.0,-999.0,73,-99.99,,,-99.99,meteohub,2013-08-19 13:59:00,
2013-08-19 10:04:00,82.9,74.1,30.06,SE,135,16.0,-999.0,75,-99.99,,,-99.99,meteohub,2013-08-19 14:04:00,
2013-08-19 10:09:00,84.0,76.1,30.06,SE,135,12.0,-999.0,77,-99.99,,,-99.99,meteohub,2013-08-19 14:09:00,
2013-08-19 10:14:00,84.0,74.5,30.06,SE,135,16.0,-999.0,73,-99.99,,,-99.99,meteohub,2013-08-19 14:14:00,
2013-08-19 10:19:00,84.0,75.2,30.06,SE,135,17.0,-999.0,75,-99.99,,,-99.99,meteohub,2013-08-19 14:19:00,
2013-08-19 10:24:00,84.0,77.2,30.06,SE,135,17.0,-999.0,80,-99.99,,,-99.99,meteohub,2013-08-19 14:24:00,
2013-08-19 10:29:00,84.0,74.8,30.06,SE,135,13.0,-999.0,74,-99.99,,,-99.99,meteohub,2013-08-19 14:29:00,
2013-08-19 10:34:00,84.0,75.6,30.06,SE,135,16.0,-999.0,76,-99.99,,,-99.99,meteohub,2013-08-19 14:34:00,
2013-08-19 10:40:00,84.0,74.8,30.06,SE,135,11.0,-999.0,74,-99.99,,,-99.99,meteohub,2013-08-19 14:40:00,
2013-08-19 10:45:00,84.0,75.2,30.06,SE,135,10.0,-999.0,75,-99.99,,,-99.99,meteohub,2013-08-19 14:45:00,
2013-08-19 10:50:00,84.0,75.2,30.06,SE,135,12.0,-999.0,75,-99.99,,,-99.99,meteohub,2013-08-19 14:50:00,
2013-08-19 10:55:00,84.0,75.2,30.04,SE,135,10.0,-999.0,75,-99.99,,,-99.99,meteohub,2013-08-19 14:55:00,
2013-08-19 11:00:00,84.9,76.1,30.06,SE,135,7.0,-999.0,75,-99.99,,,-99.99,meteohub,2013-08-19 15:00:00,
2013-08-19 11:05:00,84.9,75.7,30.06,SE,135,8.0,-999.0,74,-99.99,,,-99.99,meteohub,2013-08-19 15:05:00,
2013-08-19 11:10:00,84.9,74.1,30.06,SE,135,6.0,-999.0,70,-99.99,,,-99.99,meteohub,2013-08-19 15:10:00,
2013-08-19 11:15:00,84.9,73.6,30.06,SE,135,11.0,-999.0,69,-99.99,,,-99.99,meteohub,2013-08-19 15:15:00,
2013-08-19 11:21:00,84.9,75.2,30.08,SE,135,10.0,-999.0,73,-99.99,,,-99.99,meteohub,2013-08-19 15:21:00,
2013-08-19 11:26:00,84.9,76.1,30.08,SE,135,10.0,-999.0,75,-99.99,,,-99.99,meteohub,2013-08-19 15:26:00,
2013-08-19 11:31:00,84.9,75.7,30.08,SE,135,13.0,-999.0,74,-99.99,,,-99.99,meteohub,2013-08-19 15:31:00,
2013-08-19 11:36:00,84.9,73.6,30.08,SE,135,7.0,-999.0,69,-99.99,,,-99.99,meteohub,2013-08-19 15:36:00,
2013-08-19 11:41:00,84.9,76.1,30.08,SE,135,6.0,-999.0,75,-99.99,,,-99.99,meteohub,2013-08-19 15:41:00,
2013-08-19 11:47:00,84.9,75.2,30.08,SE,135,9.0,-999.0,73,-99.99,,,-99.99,meteohub,2013-08-19 15:47:00,
2013-08-19 11:52:00,84.9,75.2,30.06,SE,135,9.0,-999.0,73,-99.99,,,-99.99,meteohub,2013-08-19 15:52:00,
2013-08-19 11:57:00,84.9,74.8,30.06,SE,135,10.0,-999.0,72,-99.99,,,-99.99,meteohub,2013-08-19 15:57:00,
2013-08-19 12:02:00,84.9,74.5,30.06,SE,135,9.0,-999.0,71,-99.99,,,-99.99,meteohub,2013-08-19 16:02:00,
2013-08-19 12:07:00,84.9,74.8,30.06,SE,135,8.0,-999.0,72,-99.99,,,-99.99,meteohub,2013-08-19 16:07:00,
2013-08-19 12:12:00,84.9,75.2,30.04,SE,135,9.0,-999.0,73,-99.99,,,-99.99,meteohub,2013-08-19 16:12:00,
2013-08-19 12:17:00,84.9,76.1,30.04,SE,135,8.0,-999.0,75,-99.99,,,-99.99,meteohub,2013-08-19 16:17:00,
2013-08-19 12:22:00,84.9,73.2,30.04,SE,135,10.0,-999.0,68,-99.99,,,-99.99,meteohub,2013-08-19 16:22:00,
2013-08-19 12:27:00,84.9,71.8,30.04,SE,135,8.0,-999.0,65,-99.99,,,-99.99,meteohub,2013-08-19 16:27:00,
2013-08-19 12:32:00,86.0,72.9,30.04,SE,135,9.0,-999.0,65,-99.99,,,-99.99,meteohub,2013-08-19 16:32:00,
2013-08-19 12:37:00,86.0,73.8,30.04,SE,135,8.0,-999.0,67,-99.99,,,-99.99,meteohub,2013-08-19 16:37:00,
2013-08-19 12:42:00,86.0,72.9,30.04,SE,135,9.0,-999.0,65,-99.99,,,-99.99,meteohub,2013-08-19 16:42:00,
2013-08-19 12:48:00,87.1,71.4,30.04,SE,135,13.0,-999.0,60,-99.99,,,-99.99,meteohub,2013-08-19 16:48:00,
2013-08-19 12:53:00,87.1,73.9,30.04,SE,135,10.0,-999.0,65,-99.99,,,-99.99,meteohub,2013-08-19 16:53:00,
2013-08-19 12:58:00,87.1,73.4,30.04,SE,135,10.0,-999.0,64,-99.99,,,-99.99,meteohub,2013-08-19 16:58:00,
2013-08-19 13:03:00,87.1,73.9,30.04,SE,135,8.0,-999.0,65,-99.99,,,-99.99,meteohub,2013-08-19 17:03:00,
2013-08-19 13:08:00,86.0,73.8,30.04,SE,135,7.0,-999.0,67,-99.99,,,-99.99,meteohub,2013-08-19 17:08:00,
2013-08-19 13:13:00,86.0,74.1,30.04,SE,135,9.0,-999.0,68,-99.99,,,-99.99,meteohub,2013-08-19 17:13:00,
2013-08-19 13:18:00,86.0,73.2,30.04,SE,135,6.0,-999.0,66,-99.99,,,-99.99,meteohub,2013-08-19 17:18:00,
2013-08-19 13:24:00,87.1,73.9,30.04,SE,135,6.0,-999.0,65,-99.99,,,-99.99,meteohub,2013-08-19 17:24:00,
2013-08-19 13:29:00,86.0,73.8,30.04,SE,135,5.0,-999.0,67,-99.99,,,-99.99,meteohub,2013-08-19 17:29:00,
2013-08-19 13:34:00,87.1,74.8,30.04,SE,135,12.0,-999.0,67,-99.99,,,-99.99,meteohub,2013-08-19 17:34:00,
2013-08-19 13:39:00,87.1,75.2,30.04,SE,135,10.0,-999.0,68,-99.99,,,-99.99,meteohub,2013-08-19 17:39:00,
2013-08-19 13:44:00,87.1,75.2,30.04,SE,135,12.0,-999.0,68,-99.99,,,-99.99,meteohub,2013-08-19 17:44:00,
2013-08-19 13:49:00,87.1,75.2,30.03,SE,135,6.0,-999.0,68,-99.99,,,-99.99,meteohub,2013-08-19 17:49:00,
2013-08-19 13:55:00,87.1,74.3,30.03,South,180,8.0,-999.0,66,-99.99,,,-99.99,meteohub,2013-08-19 17:55:00,
2013-08-19 14:00:00,87.1,75.2,30.03,SE,135,9.0,-999.0,68,-99.99,,,-99.99,meteohub,2013-08-19 18:00:00,
2013-08-19 14:05:00,87.1,74.3,30.03,SE,135,6.0,-999.0,66,-99.99,,,-99.99,meteohub,2013-08-19 18:05:00,
2013-08-19 14:10:00,87.1,74.3,30.03,SE,135,9.0,-999.0,66,-99.99,,,-99.99,meteohub,2013-08-19 18:10:00,
2013-08-19 14:15:00,88.0,75.6,30.03,SE,135,7.0,-999.0,67,-99.99,,,-99.99,meteohub,2013-08-19 18:15:00,
2013-08-19 14:20:00,87.1,73.4,30.03,SE,135,6.0,-999.0,64,-99.99,,,-99.99,meteohub,2013-08-19 18:20:00,
2013-08-19 14:25:00,87.1,74.3,30.03,SE,135,6.0,-999.0,66,-99.99,,,-99.99,meteohub,2013-08-19 18:25:00,
2013-08-19 14:30:00,88.0,75.2,30.01,South,180,10.0,-999.0,66,-99.99,,,-99.99,meteohub,2013-08-19 18:30:00,
2013-08-19 14:36:00,87.1,75.7,30.01,South,180,7.0,-999.0,69,-99.99,,,-99.99,meteohub,2013-08-19 18:36:00,
2013-08-19 14:41:00,87.1,76.1,30.01,South,180,8.0,-999.0,70,-99.99,,,-99.99,meteohub,2013-08-19 18:41:00,
2013-08-19 14:46:00,87.1,75.2,30.01,South,180,8.0,-999.0,68,-99.99,,,-99.99,meteohub,2013-08-19 18:46:00,
2013-08-19 14:51:00,87.1,76.1,30.01,South,180,12.0,-999.0,70,-99.99,,,-99.99,meteohub,2013-08-19 18:51:00,
2013-08-19 14:56:00,86.0,75.0,30.01,South,180,9.0,-999.0,70,-99.99,,,-99.99,meteohub,2013-08-19 18:56:00,
2013-08-19 15:01:00,87.1,75.7,30.01,SSW,202,12.0,-999.0,69,-99.99,,,-99.99,meteohub,2013-08-19 19:01:00,
2013-08-19 15:06:00,87.1,75.7,30.01,SW,225,9.0,-999.0,69,-99.99,,,-99.99,meteohub,2013-08-19 19:06:00,
2013-08-19 15:11:00,86.0,75.0,30.01,SW,225,10.0,-999.0,70,-99.99,,,-99.99,meteohub,2013-08-19 19:11:00,
2013-08-19 15:16:00,84.9,74.8,30.01,SSW,202,11.0,-999.0,72,-99.99,,,-99.99,meteohub,2013-08-19 19:16:00,
2013-08-19 15:21:00,84.9,75.2,30.01,SW,225,10.0,-999.0,73,-99.99,,,-99.99,meteohub,2013-08-19 19:21:00,
2013-08-19 15:27:00,86.0,76.3,30.01,SW,225,6.0,-999.0,73,-99.99,,,-99.99,meteohub,2013-08-19 19:27:00,
2013-08-19 15:32:00,84.9,75.7,30.01,SW,225,12.0,-999.0,74,-99.99,,,-99.99,meteohub,2013-08-19 19:32:00,
2013-08-19 15:37:00,84.9,75.7,30.01,SW,225,5.0,-999.0,74,-99.99,,,-99.99,meteohub,2013-08-19 19:37:00,
2013-08-19 15:42:00,84.9,76.1,30.01,WSW,247,9.0,-999.0,75,-99.99,,,-99.99,meteohub,2013-08-19 19:42:00,
2013-08-19 15:47:00,84.9,76.8,30.00,WNW,292,5.0,-999.0,77,-99.99,,,-99.99,meteohub,2013-08-19 19:47:00,
2013-08-19 15:52:00,82.0,74.5,30.00,WSW,247,6.0,-999.0,78,-99.99,,,-99.99,meteohub,2013-08-19 19:52:00,
2013-08-19 15:57:00,79.0,74.8,30.00,West,270,13.0,-999.0,87,-99.99,,,-99.99,meteohub,2013-08-19 19:57:00,
2013-08-19 16:02:00,78.1,73.2,30.01,SW,225,7.0,-999.0,85,-99.99,,,-99.99,meteohub,2013-08-19 20:02:00,
2013-08-19 16:07:00,78.1,73.9,30.01,NNW,337,1.0,-999.0,87,-99.99,,,-99.99,meteohub,2013-08-19 20:07:00,
2013-08-19 16:12:00,78.1,73.9,30.03,NE,45,9.0,-999.0,87,-99.99,,,-99.99,meteohub,2013-08-19 20:12:00,
2013-08-19 16:17:00,75.9,73.0,30.03,NE,45,9.0,-999.0,91,-99.99,,,-99.99,meteohub,2013-08-19 20:17:00,
2013-08-19 16:22:00,75.9,75.4,30.06,NE,45,12.0,-999.0,98,-99.99,,,-99.99,meteohub,2013-08-19 20:22:00,
2013-08-19 16:27:00,75.0,73.8,30.06,NE,45,10.0,-999.0,96,-99.99,,,-99.99,meteohub,2013-08-19 20:27:00,
2013-08-19 16:32:00,75.0,74.1,30.06,WNW,292,2.0,-999.0,97,-99.99,,,-99.99,meteohub,2013-08-19 20:32:00,
2013-08-19 16:37:00,73.9,72.5,30.04,NNE,22,5.0,-999.0,95,-99.99,,,-99.99,meteohub,2013-08-19 20:37:00,
2013-08-19 16:42:00,73.0,71.2,30.04,NNE,22,4.0,-999.0,94,-99.99,,,-99.99,meteohub,2013-08-19 20:42:00,
2013-08-19 16:47:00,73.0,71.8,30.01,NW,315,9.0,-999.0,96,-99.99,,,-99.99,meteohub,2013-08-19 20:47:00,
2013-08-19 16:52:00,73.0,71.8,30.04,WSW,247,1.0,-999.0,96,-99.99,,,-99.99,meteohub,2013-08-19 20:52:00,
2013-08-19 16:58:00,73.0,71.8,30.01,West,270,7.0,-999.0,96,-99.99,,,-99.99,meteohub,2013-08-19 20:58:00,
2013-08-19 17:03:00,73.0,71.8,30.01,NW,315,9.0,-999.0,96,-99.99,,,-99.99,meteohub,2013-08-19 21:03:00,
2013-08-19 17:08:00,73.0,71.8,30.01,SW,225,2.0,-999.0,96,-99.99,,,-99.99,meteohub,2013-08-19 21:08:00,
2013-08-19 17:13:00,73.0,71.8,30.00,NNW,337,7.0,-999.0,96,-99.99,,,-99.99,meteohub,2013-08-19 21:13:00,
2013-08-19 17:18:00,73.9,72.7,30.00,NW,315,5.0,-999.0,96,-99.99,,,-99.99,meteohub,2013-08-19 21:18:00,
2013-08-19 17:23:00,73.9,72.5,30.00,WNW,292,3.0,-999.0,95,-99.99,,,-99.99,meteohub,2013-08-19 21:23:00,
2013-08-19 17:28:00,73.9,73.0,30.00,NNW,337,4.0,-999.0,97,-99.99,,,-99.99,meteohub,2013-08-19 21:28:00,
2013-08-19 17:34:00,73.9,72.7,30.01,NNW,337,2.0,-999.0,96,-99.99,,,-99.99,meteohub,2013-08-19 21:34:00,
2013-08-19 17:39:00,73.9,73.9,30.01,NE,45,1.0,-999.0,100,-99.99,,,-99.99,meteohub,2013-08-19 21:39:00,
2013-08-19 17:44:00,75.0,73.8,30.01,SE,135,7.0,-999.0,96,-99.99,,,-99.99,meteohub,2013-08-19 21:44:00,
2013-08-19 17:49:00,75.0,73.8,30.01,NE,45,6.0,-999.0,96,-99.99,,,-99.99,meteohub,2013-08-19 21:49:00,
2013-08-19 18:16:00,75.0,73.2,30.01,NE,45,4.0,-999.0,94,-99.99,,,-99.99,meteohub,2013-08-19 22:16:00,
2013-08-19 18:21:00,75.0,73.2,30.01,NE,45,3.0,-999.0,94,-99.99,,,-99.99,meteohub,2013-08-19 22:21:00,
2013-08-19 18:27:00,75.9,74.3,30.01,NE,45,6.0,-999.0,95,-99.99,,,-99.99,meteohub,2013-08-19 22:27:00,
2013-08-19 18:32:00,75.0,73.2,30.01,NE,45,4.0,-999.0,94,-99.99,,,-99.99,meteohub,2013-08-19 22:32:00,
2013-08-19 18:37:00,75.0,73.2,30.01,NNE,22,0.0,-999.0,94,-99.99,,,-99.99,meteohub,2013-08-19 22:37:00,
2013-08-19 18:42:00,75.0,75.0,30.01,NW,315,1.0,-999.0,100,-99.99,,,-99.99,meteohub,2013-08-19 22:42:00,
2013-08-19 18:47:00,75.0,73.2,30.01,NW,315,0.0,-999.0,94,-99.99,,,-99.99,meteohub,2013-08-19 22:47:00,
2013-08-19 18:52:00,75.0,73.2,30.01,NE,45,1.0,-999.0,94,-99.99,,,-99.99,meteohub,2013-08-19 22:52:00,
2013-08-19 18:57:00,75.0,73.2,30.01,NW,315,0.0,-999.0,94,-99.99,,,-99.99,meteohub,2013-08-19 22:57:00,
2013-08-19 19:02:00,75.0,73.2,30.01,NE,45,2.0,-999.0,94,-99.99,,,-99.99,meteohub,2013-08-19 23:02:00,
2013-08-19 19:07:00,75.9,74.3,30.01,NE,45,2.0,-999.0,95,-99.99,,,-99.99,meteohub,2013-08-19 23:07:00,
2013-08-19 19:12:00,75.9,74.3,30.01,WNW,292,1.0,-999.0,95,-99.99,,,-99.99,meteohub,2013-08-19 23:12:00,
2013-08-19 19:17:00,75.0,75.0,30.01,SE,135,0.0,-999.0,100,-99.99,,,-99.99,meteohub,2013-08-19 23:17:00,
2013-08-19 19:22:00,75.9,74.3,30.01,North,0,1.0,-999.0,95,-99.99,,,-99.99,meteohub,2013-08-19 23:22:00,
2013-08-19 19:27:00,75.0,73.2,30.01,NE,45,2.0,-999.0,94,-99.99,,,-99.99,meteohub,2013-08-19 23:27:00,
2013-08-19 19:32:00,75.0,73.2,30.01,NE,45,0.0,-999.0,94,-99.99,,,-99.99,meteohub,2013-08-19 23:32:00,
2013-08-19 19:37:00,75.0,75.0,30.01,NE,45,0.0,-999.0,100,-99.99,,,-99.99,meteohub,2013-08-19 23:37:00,
2013-08-19 19:42:00,75.0,73.2,30.01,NE,45,1.0,-999.0,94,-99.99,,,-99.99,meteohub,2013-08-19 23:42:00,
2013-08-19 19:47:00,75.0,73.2,30.01,SE,135,1.0,-999.0,94,-99.99,,,-99.99,meteohub,2013-08-19 23:47:00,
2013-08-19 19:52:00,75.0,73.4,30.01,NE,45,2.0,-999.0,95,-99.99,,,-99.99,meteohub,2013-08-19 23:52:00,
2013-08-19 19:57:00,75.0,73.2,30.01,North,0,2.0,-999.0,94,-99.99,,,-99.99,meteohub,2013-08-19 23:57:00,
2013-08-19 20:03:00,75.0,73.2,30.01,NW,315,2.0,-999.0,94,-99.99,,,-99.99,meteohub,2013-08-20 00:03:00,
2013-08-19 20:08:00,75.0,73.2,30.01,NW,315,0.0,-999.0,94,-99.99,,,-99.99,meteohub,2013-08-20 00:08:00,
2013-08-19 20:13:00,75.0,75.0,30.01,NNE,22,0.0,-999.0,100,-99.99,,,-99.99,meteohub,2013-08-20 00:13:00,
2013-08-19 20:18:00,75.0,73.2,30.01,NNE,22,0.0,-999.0,94,-99.99,,,-99.99,meteohub,2013-08-20 00:18:00,
2013-08-19 20:23:00,75.0,73.2,30.01,NNE,22,0.0,-999.0,94,-99.99,,,-99.99,meteohub,2013-08-20 00:23:00,
2013-08-19 20:28:00,75.0,73.4,30.01,NNE,22,0.0,-999.0,95,-99.99,,,-99.99,meteohub,2013-08-20 00:28:00,
2013-08-19 20:33:00,75.0,75.0,30.01,NNW,337,1.0,-999.0,100,-99.99,,,-99.99,meteohub,2013-08-20 00:33:00,
2013-08-19 20:38:00,75.0,73.4,30.01,North,0,0.0,-999.0,95,-99.99,,,-99.99,meteohub,2013-08-20 00:38:00,
2013-08-19 20:43:00,75.0,73.4,30.01,NE,45,2.0,-999.0,95,-99.99,,,-99.99,meteohub,2013-08-20 00:43:00,
2013-08-19 20:48:00,75.9,75.0,30.01,NE,45,3.0,-999.0,97,-99.99,,,-99.99,meteohub,2013-08-20 00:48:00,
2013-08-19 20:53:00,75.9,74.7,30.01,NE,45,3.0,-999.0,96,-99.99,,,-99.99,meteohub,2013-08-20 00:53:00,
2013-08-19 20:59:00,75.9,74.7,30.01,NE,45,1.0,-999.0,96,-99.99,,,-99.99,meteohub,2013-08-20 00:59:00,
2013-08-19 21:04:00,75.9,74.7,30.01,NNE,22,1.0,-999.0,96,-99.99,,,-99.99,meteohub,2013-08-20 01:04:00,
2013-08-19 21:09:00,75.0,75.0,30.03,NE,45,0.0,-999.0,100,-99.99,,,-99.99,meteohub,2013-08-20 01:09:00,
2013-08-19 21:14:00,75.9,74.7,30.03,NE,45,3.0,-999.0,96,-99.99,,,-99.99,meteohub,2013-08-20 01:14:00,
2013-08-19 21:19:00,75.9,74.7,30.03,NE,45,1.0,-999.0,96,-99.99,,,-99.99,meteohub,2013-08-20 01:19:00,
2013-08-19 21:24:00,75.9,75.0,30.03,North,0,2.0,-999.0,97,-99.99,,,-99.99,meteohub,2013-08-20 01:24:00,
2013-08-19 21:29:00,75.0,75.0,30.03,NE,45,3.0,-999.0,100,-99.99,,,-99.99,meteohub,2013-08-20 01:29:00,
2013-08-19 21:34:00,75.0,73.8,30.03,NNW,337,0.0,-999.0,96,-99.99,,,-99.99,meteohub,2013-08-20 01:34:00,
2013-08-19 21:39:00,75.0,73.8,30.03,NE,45,2.0,-999.0,96,-99.99,,,-99.99,meteohub,2013-08-20 01:39:00,
2013-08-19 21:44:00,75.0,73.8,30.04,NE,45,0.0,-999.0,96,-99.99,,,-99.99,meteohub,2013-08-20 01:44:00,
2013-08-19 21:49:00,75.0,73.4,30.04,NE,45,6.0,-999.0,95,-99.99,,,-99.99,meteohub,2013-08-20 01:49:00,
2013-08-19 21:54:00,75.0,73.8,30.04,NE,45,1.0,-999.0,96,-99.99,,,-99.99,meteohub,2013-08-20 01:54:00,
2013-08-19 22:00:00,75.0,73.8,30.04,NE,45,3.0,-999.0,96,-99.99,,,-99.99,meteohub,2013-08-20 02:00:00,
2013-08-19 22:05:00,73.9,73.9,30.04,NE,45,6.0,-999.0,100,-99.99,,,-99.99,meteohub,2013-08-20 02:05:00,
2013-08-19 22:10:00,75.0,73.8,30.04,NE,45,4.0,-999.0,96,-99.99,,,-99.99,meteohub,2013-08-20 02:10:00,
2013-08-19 22:15:00,75.0,73.8,30.04,NE,45,4.0,-999.0,96,-99.99,,,-99.99,meteohub,2013-08-20 02:15:00,
2013-08-19 22:20:00,75.0,73.8,30.04,NE,45,5.0,-999.0,96,-99.99,,,-99.99,meteohub,2013-08-20 02:20:00,
2013-08-19 22:25:00,73.9,73.9,30.04,NE,45,6.0,-999.0,100,-99.99,,,-99.99,meteohub,2013-08-20 02:25:00,
2013-08-19 22:30:00,75.0,73.8,30.04,NE,45,5.0,-999.0,96,-99.99,,,-99.99,meteohub,2013-08-20 02:30:00,
2013-08-19 22:35:00,73.9,72.7,30.04,NE,45,4.0,-999.0,96,-99.99,,,-99.99,meteohub,2013-08-20 02:35:00,
2013-08-19 22:40:00,75.0,73.8,30.04,NE,45,2.0,-999.0,96,-99.99,,,-99.99,meteohub,2013-08-20 02:40:00,
2013-08-19 22:45:00,75.0,73.8,30.04,NE,45,3.0,-999.0,96,-99.99,,,-99.99,meteohub,2013-08-20 02:45:00,
2013-08-19 22:50:00,73.9,72.7,30.04,NE,45,4.0,-999.0,96,-99.99,,,-99.99,meteohub,2013-08-20 02:50:00,
2013-08-19 22:56:00,73.9,72.7,30.04,NE,45,3.0,-999.0,96,-99.99,,,-99.99,meteohub,2013-08-20 02:56:00,
2013-08-19 23:01:00,73.9,73.9,30.04,NNE,22,2.0,-999.0,100,-99.99,,,-99.99,meteohub,2013-08-20 03:01:00,
2013-08-19 23:06:00,75.0,73.4,30.04,NE,45,0.0,-999.0,95,-99.99,,,-99.99,meteohub,2013-08-20 03:06:00,
2013-08-19 23:11:00,75.0,73.4,30.06,NE,45,1.0,-999.0,95,-99.99,,,-99.99,meteohub,2013-08-20 03:11:00,
2013-08-19 23:16:00,75.0,73.8,30.06,NE,45,2.0,-999.0,96,-99.99,,,-99.99,meteohub,2013-08-20 03:16:00,
2013-08-19 23:21:00,75.0,73.4,30.06,North,0,0.0,-999.0,95,-99.99,,,-99.99,meteohub,2013-08-20 03:21:00,
2013-08-19 23:26:00,75.0,73.4,30.06,NE,45,2.0,-999.0,95,-99.99,,,-99.99,meteohub,2013-08-20 03:26:00,
2013-08-19 23:31:00,75.0,73.4,30.06,NE,45,3.0,-999.0,95,-99.99,,,-99.99,meteohub,2013-08-20 03:31:00,
2013-08-19 23:36:00,75.0,73.8,30.06,NE,45,2.0,-999.0,96,-99.99,,,-99.99,meteohub,2013-08-20 03:36:00,
2013-08-19 23:41:00,75.0,73.4,30.06,NE,45,5.0,-999.0,95,-99.99,,,-99.99,meteohub,2013-08-20 03:41:00,
2013-08-19 23:46:00,75.0,73.4,30.06,NE,45,4.0,-999.0,95,-99.99,,,-99.99,meteohub,2013-08-20 03:46:00,
2013-08-19 23:51:00,75.0,73.4,30.06,NE,45,2.0,-999.0,95,-99.99,,,-99.99,meteohub,2013-08-20 03:51:00,
2013-08-19 23:57:00,73.9,73.9,30.06,NE,45,3.0,-999.0,100,-99.99,,,-99.99,meteohub,2013-08-20 03:57:00,